Brentwood, New York
Current Conditions -  °F | °C
As of 5:56 AM on Friday 31 Oct 2014 (Local Time) from KISP Reporting Station
Broken Clouds Broken Clouds  
Wind Chill: 41°   Ceiling: 4800
Heat Index: 44°   Visibility: 10mi
Dew Point: 36°   Wind: 6mph
Humidity: 73%   Direction: 10°N
Pressure: 29.98"   Gusts: NA
Location:  40.78°N, 73.25°W
Report Text: KISP 310956Z 01005KT 10SM BKN048 07/02 A2998 RMK AO2 SLP153 FIRST AUGMENTED OBSERVATION T00670022
Loading
Personal Weather Stations






























Interactive Weather Map
Tropical Storm Tracking
New forecast layout! Learn more

10-Day Weather Forecast

Advertisements
Track Severe Weather on mobile